Time;durP1;ratioP1;P1;durP2;ratioP2;P2;SDS_P1;SDS_P2;PMS_P1;PMS_P2;Temp;Humidity;BMP_temperature;BMP_pressure;BME280_temperature;BME280_humidity;BME280_pressure;Samples;Min_cycle;Max_cycle;Signal;HPM_P1;HPM_P2
2023/08/11 00:01:21;;;;;;;15.48;12.43;;;14.70;99.90;;;;;;5012582;28;20424;-70
2023/08/11 00:03:47;;;;;;;11.65;10.00;;;14.70;99.90;;;;;;5011556;28;20042;-69
2023/08/11 00:06:16;;;;;;;12.65;10.00;;;14.60;99.90;;;;;;5024424;28;20046;-70
2023/08/11 00:08:42;;;;;;;14.88;12.05;;;14.60;99.90;;;;;;5006878;28;20483;-69
2023/08/11 00:11:08;;;;;;;17.45;12.77;;;14.50;99.90;;;;;;5010411;28;20045;-70
2023/08/11 00:13:34;;;;;;;7.47;4.40;;;14.50;99.90;;;;;;5017558;28;20038;-67
2023/08/11 00:16:03;;;;;;;7.75;6.78;;;14.40;99.90;;;;;;5000503;28;20041;-67
2023/08/11 00:18:29;;;;;;;11.13;7.90;;;14.40;99.90;;;;;;5027611;28;20038;-67
2023/08/11 00:20:55;;;;;;;12.00;8.38;;;14.30;99.90;;;;;;5010941;28;20038;-68
2023/08/11 00:23:21;;;;;;;9.93;8.40;;;14.30;99.90;;;;;;4996778;28;20156;-68
2023/08/11 00:25:46;;;;;;;9.95;6.03;;;14.30;99.90;;;;;;5011802;28;20040;-70
2023/08/11 00:28:12;;;;;;;6.50;5.10;;;14.20;99.90;;;;;;5012794;28;20511;-70
2023/08/11 00:30:38;;;;;;;7.78;5.50;;;14.20;99.90;;;;;;5007128;28;20042;-69
2023/08/11 00:33:03;;;;;;;8.85;5.50;;;14.20;99.90;;;;;;4999011;28;20042;-69
2023/08/11 00:35:29;;;;;;;6.53;5.20;;;14.20;99.90;;;;;;5012254;28;20053;-68
2023/08/11 00:37:55;;;;;;;4.78;3.60;;;14.10;99.90;;;;;;5010745;28;20052;-70
2023/08/11 00:40:23;;;;;;;3.13;2.60;;;14.10;99.90;;;;;;4999235;28;20041;-69
2023/08/11 00:42:52;;;;;;;7.95;5.40;;;14.10;99.90;;;;;;5012166;28;20041;-70
2023/08/11 00:45:18;;;;;;;13.68;9.57;;;14.10;99.90;;;;;;5023894;28;20046;-69
2023/08/11 00:47:45;;;;;;;7.28;4.97;;;14.10;99.90;;;;;;4990286;28;20034;-69
2023/08/11 00:50:17;;;;;;;11.65;7.53;;;14.10;99.90;;;;;;4996169;28;20057;-70
2023/08/11 00:52:45;;;;;;;55.58;11.25;;;14.10;99.90;;;;;;5023762;28;20052;-70
2023/08/11 00:55:12;;;;;;;15.63;13.65;;;14.00;99.90;;;;;;5023828;28;20568;-70
2023/08/11 00:57:38;;;;;;;17.60;15.38;;;14.00;99.90;;;;;;5005650;28;20034;-70
2023/08/11 01:00:12;;;;;;;18.23;15.18;;;14.10;99.90;;;;;;5008507;28;20043;-69
2023/08/11 01:02:43;;;;;;;15.40;13.05;;;14.10;99.90;;;;;;5012132;28;20058;-69
2023/08/11 01:05:10;;;;;;;17.33;15.45;;;14.10;99.90;;;;;;5005275;28;20093;-68
2023/08/11 01:07:43;;;;;;;17.42;15.52;;;14.20;99.90;;;;;;5004090;28;20073;-68
2023/08/11 01:10:39;;;;;;;14.98;13.25;;;14.20;99.90;;;;;;5011553;28;20559;-68
2023/08/11 01:13:18;;;;;;;15.88;11.75;;;14.20;99.90;;;;;;5016083;28;20475;-68
2023/08/11 01:15:55;;;;;;;15.30;12.85;;;14.20;99.90;;;;;;5007632;28;20042;-67
2023/08/11 01:18:22;;;;;;;13.10;10.80;;;14.20;99.90;;;;;;4991109;28;20045;-68
2023/08/11 01:20:52;;;;;;;10.68;9.45;;;14.20;99.90;;;;;;4992142;28;20048;-68
2023/08/11 01:23:22;;;;;;;11.55;9.25;;;14.20;99.90;;;;;;5007687;28;20164;-67
2023/08/11 01:25:48;;;;;;;10.85;9.48;;;14.00;99.90;;;;;;5022922;28;20489;-67
2023/08/11 01:28:14;;;;;;;11.90;9.95;;;14.00;99.90;;;;;;4991790;28;20037;-67
2023/08/11 01:30:40;;;;;;;10.98;9.50;;;13.90;99.90;;;;;;5009945;28;20488;-67
2023/08/11 01:33:05;;;;;;;9.35;8.35;;;13.80;99.90;;;;;;5011137;28;20109;-68
2023/08/11 01:35:31;;;;;;;11.45;9.65;;;13.80;99.90;;;;;;5011611;28;20042;-72
2023/08/11 01:37:57;;;;;;;9.55;8.40;;;13.70;99.90;;;;;;4999715;28;20065;-67
2023/08/11 01:40:23;;;;;;;8.57;7.38;;;13.70;99.90;;;;;;5022762;28;20149;-67
2023/08/11 01:42:50;;;;;;;8.15;7.35;;;13.80;99.90;;;;;;4990698;28;20061;-67
2023/08/11 01:45:16;;;;;;;8.70;7.80;;;13.70;99.90;;;;;;4988089;28;20038;-70
2023/08/11 01:47:45;;;;;;;8.40;7.50;;;13.70;99.90;;;;;;4998472;28;20049;-70
2023/08/11 01:50:13;;;;;;;8.32;7.53;;;13.70;99.90;;;;;;5009899;28;20083;-70
2023/08/11 01:52:41;;;;;;;8.18;7.38;;;13.70;99.90;;;;;;5010363;28;20480;-70
2023/08/11 01:55:11;;;;;;;9.73;7.82;;;13.80;99.90;;;;;;5002141;28;20078;-68
2023/08/11 01:57:38;;;;;;;13.45;11.38;;;13.80;99.90;;;;;;5003749;28;20037;-70
2023/08/11 02:00:12;;;;;;;11.60;8.77;;;13.80;99.90;;;;;;5011522;28;20034;-70
2023/08/11 02:02:38;;;;;;;12.23;10.73;;;13.70;99.90;;;;;;5000662;28;20065;-70
2023/08/11 02:05:06;;;;;;;12.00;9.70;;;13.60;99.90;;;;;;5008603;28;20551;-68
2023/08/11 02:07:32;;;;;;;15.00;10.43;;;13.60;99.90;;;;;;5014807;28;20484;-68
2023/08/11 02:09:57;;;;;;;13.25;11.48;;;13.50;99.90;;;;;;5011741;28;20038;-67
2023/08/11 02:12:23;;;;;;;13.52;10.85;;;13.50;99.90;;;;;;5008844;28;20504;-67
2023/08/11 02:14:48;;;;;;;11.32;9.55;;;13.50;99.90;;;;;;5010054;28;20069;-68
2023/08/11 02:17:14;;;;;;;11.75;10.02;;;13.50;99.90;;;;;;5026669;28;20042;-70
2023/08/11 02:19:40;;;;;;;19.10;12.88;;;13.50;99.90;;;;;;4994880;28;20631;-70
2023/08/11 02:22:05;;;;;;;12.80;10.45;;;13.60;99.90;;;;;;5007560;28;20038;-72
2023/08/11 02:24:31;;;;;;;17.70;12.48;;;13.60;99.90;;;;;;5014598;28;20034;-69
2023/08/11 02:26:56;;;;;;;18.65;15.55;;;13.60;99.90;;;;;;5014947;28;20068;-70
2023/08/11 02:29:22;;;;;;;11.65;10.20;;;13.70;99.90;;;;;;5017384;28;20039;-67
2023/08/11 02:31:48;;;;;;;17.02;12.23;;;13.70;99.90;;;;;;5009061;28;20040;-67
2023/08/11 02:34:14;;;;;;;15.02;12.25;;;13.70;99.90;;;;;;5013302;28;20038;-67
2023/08/11 02:36:40;;;;;;;13.68;11.48;;;13.70;99.90;;;;;;5003768;28;20395;-67
2023/08/11 02:39:05;;;;;;;16.33;12.68;;;13.60;99.90;;;;;;5006757;28;20476;-67
2023/08/11 02:41:31;;;;;;;14.68;10.85;;;13.60;99.90;;;;;;5026547;28;20053;-67
2023/08/11 02:43:57;;;;;;;13.30;11.88;;;13.60;99.90;;;;;;4995996;28;20046;-67
2023/08/11 02:46:23;;;;;;;17.83;14.35;;;13.60;99.90;;;;;;5012701;28;20038;-70
2023/08/11 02:48:49;;;;;;;19.40;14.90;;;13.70;99.90;;;;;;5013209;28;20046;-70
2023/08/11 02:51:15;;;;;;;18.38;14.18;;;13.70;99.90;;;;;;5029093;28;20045;-69
2023/08/11 02:53:40;;;;;;;21.42;17.38;;;13.70;99.90;;;;;;5016936;28;20042;-70
2023/08/11 02:56:09;;;;;;;27.77;17.23;;;13.70;99.90;;;;;;5009491;28;20049;-68
2023/08/11 02:58:35;;;;;;;33.58;18.75;;;13.80;99.90;;;;;;5014316;28;20034;-67
2023/08/11 03:01:01;;;;;;;24.55;17.85;;;13.90;99.90;;;;;;5014700;28;20030;-67
2023/08/11 03:03:26;;;;;;;21.27;16.25;;;13.90;99.90;;;;;;4999931;28;20503;-67
2023/08/11 03:05:52;;;;;;;18.70;14.32;;;13.90;99.90;;;;;;5008689;28;20038;-68
2023/08/11 03:08:18;;;;;;;17.58;12.70;;;13.80;99.90;;;;;;5010724;28;20041;-70
2023/08/11 03:10:43;;;;;;;16.33;12.48;;;13.70;99.90;;;;;;5017435;28;20037;-69
2023/08/11 03:13:09;;;;;;;12.95;10.30;;;13.70;99.90;;;;;;5012668;28;20117;-69
2023/08/11 03:15:34;;;;;;;15.63;12.77;;;13.60;99.90;;;;;;5013547;28;20042;-68
2023/08/11 03:18:00;;;;;;;16.83;10.60;;;13.50;99.90;;;;;;5024483;28;20038;-68
2023/08/11 03:20:26;;;;;;;11.32;9.73;;;13.40;99.90;;;;;;4998222;28;20341;-67
2023/08/11 03:22:51;;;;;;;12.90;10.55;;;13.40;99.90;;;;;;5024830;28;20042;-67
2023/08/11 03:25:17;;;;;;;15.25;11.13;;;13.30;99.90;;;;;;5022357;28;20073;-67
2023/08/11 03:27:43;;;;;;;14.25;11.23;;;13.30;99.90;;;;;;5000577;28;20035;-70
2023/08/11 03:30:10;;;;;;;12.63;11.10;;;13.30;99.90;;;;;;5010987;28;20134;-68
2023/08/11 03:32:40;;;;;;;18.17;11.43;;;13.20;99.90;;;;;;5009139;28;20294;-66
2023/08/11 03:35:06;;;;;;;16.42;13.48;;;13.20;99.90;;;;;;5004900;28;20038;-67
2023/08/11 03:37:33;;;;;;;16.38;12.38;;;13.20;99.90;;;;;;5002872;28;20058;-67
2023/08/11 03:39:59;;;;;;;19.85;14.00;;;13.20;99.90;;;;;;5010421;28;20087;-67
2023/08/11 03:42:24;;;;;;;19.23;14.95;;;13.30;99.90;;;;;;5006471;28;20539;-67
2023/08/11 03:44:51;;;;;;;54.42;11.68;;;13.30;99.90;;;;;;5007705;28;20030;-68
2023/08/11 03:47:17;;;;;;;15.63;12.80;;;13.40;99.90;;;;;;5011787;28;20092;-69
2023/08/11 03:49:43;;;;;;;17.58;13.52;;;13.40;99.90;;;;;;5009444;28;20547;-70
2023/08/11 03:52:09;;;;;;;14.68;11.50;;;13.40;99.90;;;;;;5002806;28;20045;-70
2023/08/11 03:54:34;;;;;;;13.95;10.52;;;13.40;99.90;;;;;;5011656;28;20034;-68
2023/08/11 03:57:00;;;;;;;11.68;9.45;;;13.40;99.90;;;;;;5012888;28;20428;-68
2023/08/11 03:59:26;;;;;;;12.88;8.45;;;13.40;99.90;;;;;;5005407;28;20554;-68
2023/08/11 04:01:52;;;;;;;9.57;8.57;;;13.30;99.90;;;;;;5008686;28;20388;-67
2023/08/11 04:04:18;;;;;;;11.23;9.43;;;13.20;99.90;;;;;;5011298;28;20511;-68
2023/08/11 04:06:44;;;;;;;15.88;11.70;;;13.20;99.90;;;;;;5013141;28;20123;-70
2023/08/11 04:09:10;;;;;;;12.02;10.13;;;13.20;99.90;;;;;;5001382;28;20053;-68
2023/08/11 04:11:36;;;;;;;12.18;10.18;;;13.20;99.90;;;;;;4999771;28;20041;-69
2023/08/11 04:14:02;;;;;;;17.38;11.82;;;13.20;99.90;;;;;;5012748;28;20038;-68
2023/08/11 04:16:28;;;;;;;13.70;9.90;;;13.20;99.90;;;;;;4996587;28;20038;-68
2023/08/11 04:18:53;;;;;;;12.38;9.63;;;13.20;99.90;;;;;;5004311;28;20048;-66
2023/08/11 04:21:19;;;;;;;12.82;9.25;;;13.20;99.90;;;;;;5027875;28;20133;-70
2023/08/11 04:23:45;;;;;;;12.40;9.25;;;13.20;99.90;;;;;;5005933;28;20034;-70
2023/08/11 04:26:10;;;;;;;16.30;11.75;;;13.20;99.90;;;;;;4996716;28;20464;-69
2023/08/11 04:28:38;;;;;;;13.93;10.20;;;13.30;99.90;;;;;;5021262;28;20042;-70
2023/08/11 04:31:06;;;;;;;15.95;13.05;;;13.30;99.90;;;;;;5005388;28;20546;-70
2023/08/11 04:33:32;;;;;;;17.35;13.65;;;13.40;99.90;;;;;;4996299;28;20080;-70
2023/08/11 04:35:58;;;;;;;17.98;14.25;;;13.40;99.90;;;;;;5008540;28;20057;-69
2023/08/11 04:38:24;;;;;;;15.57;12.07;;;13.50;99.90;;;;;;5011101;28;20076;-70
2023/08/11 04:40:50;;;;;;;14.73;12.15;;;13.50;99.90;;;;;;5006265;28;20038;-69
2023/08/11 04:43:17;;;;;;;15.45;10.98;;;13.60;99.90;;;;;;5002567;28;20575;-69
2023/08/11 04:45:42;;;;;;;17.67;9.82;;;13.60;99.90;;;;;;5005620;28;20440;-68
2023/08/11 04:48:08;;;;;;;15.15;11.82;;;13.60;99.90;;;;;;5000186;28;20485;-69
2023/08/11 04:50:34;;;;;;;14.50;11.48;;;13.60;99.90;;;;;;4999357;28;20026;-68
2023/08/11 04:53:00;;;;;;;18.13;13.60;;;13.60;99.90;;;;;;5021469;28;20090;-67
2023/08/11 04:55:26;;;;;;;15.05;11.93;;;13.70;99.90;;;;;;5012504;28;20034;-68
2023/08/11 04:57:51;;;;;;;14.70;12.25;;;13.70;99.90;;;;;;4990963;28;20516;-68
2023/08/11 05:00:17;;;;;;;19.05;12.18;;;13.70;99.90;;;;;;5010281;28;20038;-67
2023/08/11 05:02:44;;;;;;;18.02;13.93;;;13.80;99.90;;;;;;5010717;28;20456;-68
2023/08/11 05:05:10;;;;;;;17.73;13.75;;;13.90;99.90;;;;;;5002857;28;20057;-69
2023/08/11 05:07:37;;;;;;;23.58;14.38;;;13.90;99.90;;;;;;4999187;28;20034;-69
2023/08/11 05:10:04;;;;;;;29.17;14.98;;;14.00;99.90;;;;;;5008025;28;20034;-68
2023/08/11 05:12:30;;;;;;;20.08;13.63;;;14.20;99.90;;;;;;5012035;28;20045;-68
2023/08/11 05:14:56;;;;;;;21.20;15.23;;;14.20;99.90;;;;;;4994665;28;20038;-69
2023/08/11 05:17:21;;;;;;;27.88;16.00;;;14.40;99.90;;;;;;5006562;28;20072;-67
2023/08/11 05:19:47;;;;;;;24.23;15.15;;;14.50;99.90;;;;;;5011586;28;20030;-68
2023/08/11 05:22:12;;;;;;;26.38;15.35;;;14.60;99.90;;;;;;5006283;28;20156;-68
2023/08/11 05:24:38;;;;;;;28.38;16.13;;;14.70;99.90;;;;;;5004758;28;20484;-67
2023/08/11 05:27:04;;;;;;;26.30;16.08;;;14.80;99.90;;;;;;5005970;28;20042;-67
2023/08/11 05:29:30;;;;;;;20.50;15.40;;;14.90;99.90;;;;;;5002323;28;20037;-67
2023/08/11 05:31:55;;;;;;;24.20;16.90;;;15.00;99.90;;;;;;5010164;28;20468;-70
2023/08/11 05:34:21;;;;;;;28.17;14.70;;;15.10;99.90;;;;;;5014969;28;20030;-70
2023/08/11 05:36:48;;;;;;;24.00;15.13;;;15.20;99.90;;;;;;5002439;28;20069;-70
2023/08/11 05:39:14;;;;;;;20.98;14.82;;;15.20;99.90;;;;;;5021556;28;20074;-70
2023/08/11 05:41:40;;;;;;;23.73;15.23;;;15.30;99.90;;;;;;5002299;28;20041;-69
2023/08/11 05:44:06;;;;;;;20.08;14.88;;;15.50;99.90;;;;;;5011013;28;20540;-70
2023/08/11 05:46:32;;;;;;;25.23;15.25;;;15.50;99.90;;;;;;5010045;28;20038;-67
2023/08/11 05:48:57;;;;;;;23.90;15.40;;;15.60;99.90;;;;;;5003469;28;20076;-69
2023/08/11 05:51:23;;;;;;;22.55;15.13;;;15.70;99.90;;;;;;5005262;28;20034;-67
2023/08/11 05:53:49;;;;;;;26.52;16.38;;;15.70;99.90;;;;;;5003534;28;20053;-70
2023/08/11 05:56:15;;;;;;;22.38;14.70;;;15.80;99.90;;;;;;4999068;28;20038;-70
2023/08/11 05:58:41;;;;;;;22.55;14.07;;;15.90;99.90;;;;;;5002980;28;20452;-69
2023/08/11 06:01:06;;;;;;;20.25;14.07;;;16.00;99.90;;;;;;5009318;28;20038;-70
2023/08/11 06:03:32;;;;;;;24.13;15.27;;;16.10;99.90;;;;;;5008513;28;20030;-67
2023/08/11 06:06:02;;;;;;;18.65;13.95;;;16.20;99.90;;;;;;5002207;28;20396;-70
2023/08/11 06:08:30;;;;;;;24.63;14.75;;;16.30;99.90;;;;;;5009810;28;20038;-67
2023/08/11 06:10:55;;;;;;;21.17;13.85;;;16.30;99.90;;;;;;5011579;28;20565;-67
2023/08/11 06:13:22;;;;;;;19.73;13.35;;;16.40;99.90;;;;;;5000759;28;20096;-67
2023/08/11 06:15:49;;;;;;;18.83;13.98;;;16.50;99.90;;;;;;5009540;28;20041;-70
2023/08/11 06:18:14;;;;;;;20.63;13.75;;;16.60;99.90;;;;;;5009763;28;20480;-70
2023/08/11 06:20:40;;;;;;;20.48;14.00;;;16.70;99.90;;;;;;5020304;28;20041;-70
2023/08/11 06:23:06;;;;;;;25.35;14.18;;;16.70;99.90;;;;;;4995838;28;20048;-70
2023/08/11 06:25:32;;;;;;;26.15;14.63;;;16.80;99.90;;;;;;5010862;28;20038;-69
2023/08/11 06:27:57;;;;;;;22.70;14.65;;;17.00;99.90;;;;;;5010921;28;20068;-70
2023/08/11 06:30:23;;;;;;;24.20;14.23;;;17.00;99.90;;;;;;4999721;28;20045;-69
2023/08/11 06:32:48;;;;;;;16.73;13.45;;;17.10;99.90;;;;;;5005709;28;20042;-69
2023/08/11 06:35:14;;;;;;;22.23;14.05;;;17.20;99.90;;;;;;5009734;28;20045;-70
2023/08/11 06:37:40;;;;;;;17.33;13.20;;;17.30;99.90;;;;;;5026234;28;20125;-70
2023/08/11 06:40:07;;;;;;;20.38;13.30;;;17.40;99.90;;;;;;4995450;28;20058;-70
2023/08/11 06:42:33;;;;;;;15.98;13.18;;;17.50;99.90;;;;;;4995951;28;20034;-70
2023/08/11 06:44:58;;;;;;;22.55;13.63;;;17.60;99.90;;;;;;4997166;28;20548;-73
2023/08/11 06:47:24;;;;;;;21.67;13.52;;;17.70;99.90;;;;;;5020325;28;20093;-67
2023/08/11 06:49:50;;;;;;;17.35;12.27;;;17.80;99.90;;;;;;5006976;28;20093;-67
2023/08/11 06:52:15;;;;;;;15.13;11.93;;;18.00;99.90;;;;;;5014449;28;20511;-67
2023/08/11 06:54:41;;;;;;;12.15;10.45;;;18.00;99.90;;;;;;5010634;28;20091;-70
2023/08/11 06:57:06;;;;;;;15.35;11.65;;;18.20;99.90;;;;;;5006807;28;20045;-67
2023/08/11 06:59:32;;;;;;;17.35;11.35;;;18.20;99.90;;;;;;5014077;28;20506;-67
2023/08/11 07:01:58;;;;;;;16.55;10.98;;;18.40;99.90;;;;;;5004422;28;20033;-68
2023/08/11 07:04:23;;;;;;;16.13;10.68;;;18.50;99.90;;;;;;5011818;28;20452;-70
2023/08/11 07:06:49;;;;;;;12.50;10.45;;;18.50;99.90;;;;;;5013163;28;20435;-67
2023/08/11 07:09:16;;;;;;;15.45;11.18;;;18.60;99.90;;;;;;5010422;28;20558;-72
2023/08/11 07:11:41;;;;;;;13.73;10.75;;;18.70;99.90;;;;;;4999278;28;20042;-67
2023/08/11 07:14:07;;;;;;;14.00;10.45;;;18.80;99.90;;;;;;5011710;28;20394;-71
2023/08/11 07:16:32;;;;;;;13.88;10.23;;;18.90;99.90;;;;;;5005582;28;20029;-70
2023/08/11 07:18:58;;;;;;;14.93;10.30;;;19.00;99.90;;;;;;5004479;28;20037;-69
2023/08/11 07:21:24;;;;;;;13.82;10.23;;;19.10;99.90;;;;;;5016239;28;20030;-70
2023/08/11 07:23:50;;;;;;;16.27;10.93;;;19.20;99.90;;;;;;5007393;28;20044;-70
2023/08/11 07:26:16;;;;;;;14.02;10.05;;;19.30;99.90;;;;;;5004723;28;20046;-68
2023/08/11 07:28:41;;;;;;;15.50;10.73;;;19.40;99.90;;;;;;5006091;28;20582;-68
2023/08/11 07:31:07;;;;;;;14.52;10.52;;;19.50;99.90;;;;;;4997498;28;20046;-68
2023/08/11 07:33:33;;;;;;;13.45;10.05;;;19.60;99.90;;;;;;5013267;28;20034;-68
2023/08/11 07:35:59;;;;;;;14.55;9.52;;;19.70;99.90;;;;;;5003702;28;20039;-68
2023/08/11 07:38:24;;;;;;;13.35;9.52;;;19.80;99.90;;;;;;5021280;28;20388;-68
2023/08/11 07:40:50;;;;;;;11.40;9.02;;;19.90;99.90;;;;;;5008927;28;20029;-67
2023/08/11 07:43:15;;;;;;;13.95;9.07;;;20.00;99.90;;;;;;4998083;28;20041;-67
2023/08/11 07:45:41;;;;;;;12.85;9.32;;;20.00;99.90;;;;;;5013348;28;20480;-68
2023/08/11 07:48:07;;;;;;;16.17;8.73;;;20.10;99.90;;;;;;5013579;28;20543;-69
2023/08/11 07:50:37;;;;;;;13.55;9.02;;;20.10;99.90;;;;;;5020718;28;20045;-68
2023/08/11 07:53:03;;;;;;;11.85;8.57;;;20.20;99.90;;;;;;4995158;28;20053;-68
2023/08/11 07:55:29;;;;;;;11.25;8.32;;;20.30;99.90;;;;;;5011223;28;20029;-68
2023/08/11 07:57:54;;;;;;;13.32;8.50;;;20.40;99.90;;;;;;5013312;28;20083;-68
2023/08/11 08:00:24;;;;;;;10.35;7.75;;;20.50;99.90;;;;;;5002740;28;20026;-70
2023/08/11 08:02:52;;;;;;;11.07;6.85;;;20.60;99.90;;;;;;5002062;28;20088;-70
2023/08/11 08:05:18;;;;;;;10.50;7.43;;;20.70;99.90;;;;;;5010666;28;20041;-67
2023/08/11 08:07:43;;;;;;;9.25;6.68;;;20.70;99.90;;;;;;5002655;28;20397;-68
2023/08/11 08:10:10;;;;;;;14.80;7.05;;;20.80;99.90;;;;;;5000540;28;20509;-68
2023/08/11 08:12:37;;;;;;;8.40;6.82;;;20.80;99.90;;;;;;5012462;28;20038;-67
2023/08/11 08:15:07;;;;;;;8.40;7.18;;;21.00;99.90;;;;;;5011969;28;20042;-70
2023/08/11 08:17:33;;;;;;;9.97;6.07;;;21.00;99.90;;;;;;5004114;28;20153;-70
2023/08/11 08:20:00;;;;;;;9.52;6.47;;;21.00;99.90;;;;;;5004960;28;20818;-70
2023/08/11 08:22:25;;;;;;;7.88;6.78;;;21.10;99.90;;;;;;5012420;28;20037;-70
2023/08/11 08:24:52;;;;;;;8.57;6.70;;;21.20;99.90;;;;;;5012705;28;20033;-70
2023/08/11 08:27:23;;;;;;;12.70;7.15;;;21.20;99.90;;;;;;4997015;28;20084;-69
2023/08/11 08:29:50;;;;;;;8.73;6.93;;;21.30;99.90;;;;;;5007992;28;20113;-70
2023/08/11 08:32:15;;;;;;;8.15;6.40;;;21.40;99.90;;;;;;5012668;28;20038;-67
2023/08/11 08:34:43;;;;;;;10.70;7.15;;;21.40;99.90;;;;;;5007310;28;20038;-67
2023/08/11 08:37:09;;;;;;;9.77;6.95;;;21.50;99.90;;;;;;5017833;28;20041;-70
2023/08/11 08:39:34;;;;;;;9.30;7.57;;;21.60;99.90;;;;;;5010606;28;20100;-67
2023/08/11 08:42:03;;;;;;;12.32;7.65;;;21.60;99.90;;;;;;5021532;28;20053;-68
2023/08/11 08:44:30;;;;;;;9.70;7.30;;;21.70;99.90;;;;;;4997450;28;20510;-68
2023/08/11 08:46:58;;;;;;;9.15;7.90;;;21.80;99.90;;;;;;5002417;28;20088;-68
2023/08/11 08:49:26;;;;;;;9.75;8.15;;;21.80;99.90;;;;;;4994619;28;20080;-68
2023/08/11 08:51:53;;;;;;;13.32;8.23;;;21.90;99.90;;;;;;5008262;28;20058;-68
2023/08/11 08:54:19;;;;;;;12.10;8.32;;;21.90;99.90;;;;;;5013590;28;20088;-68
2023/08/11 08:56:45;;;;;;;13.23;8.60;;;22.00;99.90;;;;;;5007458;28;20034;-68
2023/08/11 08:59:11;;;;;;;10.43;7.68;;;22.00;99.90;;;;;;5004518;28;20096;-68
2023/08/11 09:01:38;;;;;;;11.75;7.97;;;22.10;99.90;;;;;;5007932;28;20424;-68
2023/08/11 09:04:07;;;;;;;15.38;7.72;;;22.20;99.90;;;;;;5011814;28;20064;-68
2023/08/11 09:06:34;;;;;;;10.18;7.35;;;22.30;99.90;;;;;;5025534;28;20568;-69
2023/08/11 09:09:01;;;;;;;10.18;7.45;;;22.40;99.90;;;;;;4997054;28;20047;-68
2023/08/11 09:11:27;;;;;;;9.90;6.95;;;22.40;99.90;;;;;;5008568;28;20045;-68
2023/08/11 09:13:53;;;;;;;8.73;6.97;;;22.50;99.90;;;;;;5011695;28;20044;-68
2023/08/11 09:16:23;;;;;;;11.85;7.57;;;22.60;99.90;;;;;;5001722;28;20034;-68
2023/08/11 09:18:49;;;;;;;8.43;6.63;;;22.60;99.90;;;;;;5009539;28;20070;-68
2023/08/11 09:21:16;;;;;;;9.23;6.88;;;22.80;99.90;;;;;;5011979;28;20065;-68
2023/08/11 09:23:43;;;;;;;9.70;7.22;;;22.80;99.90;;;;;;5018234;28;20057;-68
2023/08/11 09:26:09;;;;;;;10.15;6.95;;;22.80;99.90;;;;;;5009960;28;20423;-68
2023/08/11 09:28:35;;;;;;;11.88;7.63;;;22.90;99.90;;;;;;5011560;28;20037;-67
2023/08/11 09:31:01;;;;;;;10.32;7.38;;;22.90;99.90;;;;;;5006044;28;20097;-68
2023/08/11 09:33:28;;;;;;;9.38;6.80;;;23.00;99.90;;;;;;4993403;28;20712;-69
2023/08/11 09:35:53;;;;;;;10.30;7.10;;;23.20;99.90;;;;;;5009010;28;20030;-68
2023/08/11 09:38:19;;;;;;;9.65;7.05;;;23.20;99.90;;;;;;5011662;28;20083;-68
2023/08/11 09:40:48;;;;;;;9.10;6.78;;;23.30;99.90;;;;;;5011858;28;20030;-68
2023/08/11 09:43:14;;;;;;;11.13;6.80;;;23.30;99.90;;;;;;4998975;28;20093;-68
2023/08/11 09:45:39;;;;;;;9.07;6.65;;;23.30;99.90;;;;;;5003465;28;20127;-68
2023/08/11 09:48:06;;;;;;;11.25;7.45;;;23.40;99.90;;;;;;5008771;28;20104;-68
2023/08/11 09:50:34;;;;;;;11.38;6.78;;;23.50;99.90;;;;;;5003542;28;20049;-68
2023/08/11 09:53:04;;;;;;;9.48;6.80;;;23.60;99.90;;;;;;4998795;28;20128;-68
2023/08/11 09:55:32;;;;;;;11.18;7.32;;;23.80;99.90;;;;;;5010060;28;20037;-68
2023/08/11 09:58:01;;;;;;;12.68;6.97;;;24.00;99.90;;;;;;5011342;28;20046;-68
2023/08/11 10:00:27;;;;;;;8.85;6.43;;;24.00;99.90;;;;;;5005095;28;20038;-68
2023/08/11 10:02:56;;;;;;;11.60;6.47;;;24.00;99.90;;;;;;5009928;28;20041;-68
2023/08/11 10:05:24;;;;;;;12.65;6.50;;;24.10;99.90;;;;;;5006294;28;20404;-69
2023/08/11 10:07:53;;;;;;;8.40;6.25;;;24.20;99.90;;;;;;4993498;28;20035;-68
2023/08/11 10:10:21;;;;;;;8.55;6.25;;;24.30;99.90;;;;;;5010516;28;20459;-69
2023/08/11 10:13:23;;;;;;;10.15;5.72;;;24.40;99.90;;;;;;5006500;28;20038;-68
2023/08/11 10:23:36;;;;;;;10.80;5.38;;;24.80;99.90;;;;;;5118996;22;20079;-75
2023/08/11 10:26:02;;;;;;;6.93;5.38;;;24.80;99.90;;;;;;4995911;28;20125;-75
2023/08/11 10:28:29;;;;;;;7.60;5.40;;;24.90;99.90;;;;;;5007024;28;20037;-76
2023/08/11 10:34:36;;;;;;;10.77;6.05;;;25.10;99.90;;;;;;5145482;22;20114;-74
2023/08/11 10:37:01;;;;;;;7.47;4.70;;;25.20;99.90;;;;;;5026221;28;20033;-75
2023/08/11 10:39:27;;;;;;;9.18;4.40;;;25.20;99.90;;;;;;5022316;28;20041;-76
2023/08/11 10:41:55;;;;;;;5.43;3.67;;;25.30;99.90;;;;;;5047962;28;20398;-74
2023/08/11 10:44:27;;;;;;;6.65;4.60;;;25.20;99.90;;;;;;5038382;28;20076;-74
2023/08/11 10:46:53;;;;;;;7.78;4.57;;;25.30;99.90;;;;;;5006993;28;20037;-74
2023/08/11 10:49:32;;;;;;;6.35;4.93;;;25.40;99.90;;;;;;5064158;22;20043;-68
2023/08/11 10:52:00;;;;;;;5.75;4.32;;;25.50;99.90;;;;;;5051031;28;20103;-67
2023/08/11 10:54:26;;;;;;;6.95;3.58;;;25.70;99.90;;;;;;5043834;28;20932;-67
2023/08/11 10:56:52;;;;;;;5.53;3.83;;;25.60;99.90;;;;;;5044039;28;20456;-67
2023/08/11 10:59:22;;;;;;;7.18;3.92;;;25.50;99.90;;;;;;5016071;28;20038;-67
2023/08/11 11:01:52;;;;;;;5.80;3.90;;;25.50;99.90;;;;;;5029485;28;20080;-68
2023/08/11 11:04:20;;;;;;;8.73;4.40;;;25.60;99.90;;;;;;5034336;28;20042;-67
2023/08/11 11:06:48;;;;;;;8.30;4.43;;;25.80;99.90;;;;;;5030081;28;20124;-68
2023/08/11 11:09:14;;;;;;;6.20;4.28;;;25.80;99.90;;;;;;5026772;28;20038;-69
2023/08/11 11:11:41;;;;;;;7.03;3.55;;;26.00;99.90;;;;;;5020550;28;20042;-70
2023/08/11 11:14:10;;;;;;;5.32;3.42;;;26.10;99.90;;;;;;5024082;28;20107;-68
2023/08/11 11:16:36;;;;;;;5.47;3.50;;;26.00;99.90;;;;;;5019161;28;20026;-69
2023/08/11 11:19:09;;;;;;;6.07;3.58;;;26.00;99.90;;;;;;5017928;28;20105;-69
2023/08/11 11:21:36;;;;;;;7.03;4.07;;;26.10;99.90;;;;;;5022707;28;20116;-69
2023/08/11 11:24:03;;;;;;;5.22;3.40;;;26.30;99.90;;;;;;5017824;28;20042;-68
2023/08/11 11:26:31;;;;;;;5.32;3.50;;;26.40;99.90;;;;;;5019954;28;20550;-68
2023/08/11 11:28:59;;;;;;;5.63;3.40;;;26.50;99.90;;;;;;5021788;28;20067;-68
2023/08/11 11:31:27;;;;;;;5.40;3.85;;;26.50;99.90;;;;;;5017717;28;20029;-69
2023/08/11 11:33:53;;;;;;;4.68;3.70;;;26.70;99.90;;;;;;5001716;28;20087;-68
2023/08/11 11:36:20;;;;;;;8.30;3.95;;;26.70;99.90;;;;;;5019393;28;20030;-68
2023/08/11 11:38:47;;;;;;;5.93;4.00;;;26.70;99.90;;;;;;5021343;28;20038;-68
2023/08/11 11:41:21;;;;;;;6.07;4.25;;;26.70;99.90;;;;;;5020968;28;20038;-68
2023/08/11 11:43:50;;;;;;;8.48;4.18;;;26.70;99.90;;;;;;5023578;28;20097;-69
2023/08/11 11:46:18;;;;;;;8.40;4.05;;;26.80;99.90;;;;;;5020773;28;20041;-68
2023/08/11 11:48:50;;;;;;;6.80;4.03;;;26.90;99.90;;;;;;5029763;28;20029;-68
2023/08/11 11:51:18;;;;;;;6.85;4.20;;;27.10;99.90;;;;;;5001241;28;20065;-68
2023/08/11 11:53:44;;;;;;;8.43;4.40;;;27.20;99.90;;;;;;5013811;28;20037;-71
2023/08/11 11:56:14;;;;;;;6.88;4.32;;;27.30;99.90;;;;;;4992811;28;20042;-70
2023/08/11 11:58:40;;;;;;;6.03;3.90;;;27.40;99.90;;;;;;5009782;28;20041;-68
2023/08/11 12:01:15;;;;;;;5.97;4.00;;;27.60;99.90;;;;;;5006349;28;20041;-68
2023/08/11 12:03:41;;;;;;;4.97;3.42;;;27.80;99.90;;;;;;5009366;28;20045;-68
2023/08/11 12:06:10;;;;;;;8.55;3.70;;;27.70;99.90;;;;;;5015117;28;20046;-68
2023/08/11 12:08:35;;;;;;;6.70;4.22;;;27.60;99.90;;;;;;5008434;28;20045;-68
2023/08/11 12:11:02;;;;;;;6.20;3.50;;;27.60;99.90;;;;;;5012460;28;20033;-69
2023/08/11 12:13:30;;;;;;;7.30;3.28;;;27.50;99.90;;;;;;5008759;28;20038;-71
2023/08/11 12:15:57;;;;;;;5.60;3.58;;;27.70;99.90;;;;;;5007412;28;20048;-70
2023/08/11 12:18:23;;;;;;;8.70;3.80;;;27.90;99.90;;;;;;5011173;28;20029;-71
2023/08/11 12:20:49;;;;;;;7.65;4.70;;;27.90;99.90;;;;;;5009978;28;20048;-69
2023/08/11 12:23:14;;;;;;;8.27;3.78;;;27.50;99.90;;;;;;5009181;28;20037;-70
2023/08/11 12:25:40;;;;;;;8.18;4.10;;;27.20;99.90;;;;;;5013001;28;20537;-71
2023/08/11 12:28:05;;;;;;;5.88;3.72;;;27.00;99.90;;;;;;5011604;28;20073;-68
2023/08/11 12:30:31;;;;;;;6.03;4.00;;;26.70;99.90;;;;;;5009863;28;20042;-70
2023/08/11 12:32:57;;;;;;;5.70;4.10;;;26.60;99.90;;;;;;5012045;28;20033;-68
2023/08/11 12:35:23;;;;;;;5.38;3.53;;;26.80;99.90;;;;;;4992987;28;21136;-68
2023/08/11 12:37:49;;;;;;;5.57;3.80;;;27.20;99.90;;;;;;5011193;28;20038;-68
2023/08/11 12:40:14;;;;;;;7.53;3.90;;;27.50;99.90;;;;;;5016213;28;20037;-69
2023/08/11 12:42:40;;;;;;;5.75;3.80;;;27.50;99.90;;;;;;5007379;28;20495;-69
2023/08/11 12:45:07;;;;;;;6.07;4.20;;;27.60;99.90;;;;;;5010804;28;20053;-70